Wabush, Canada
Current Conditions -  °F | °C
As of 4:00 AM on Thursday 23 Oct 2014 (Local Time) from CYWK Reporting Station
Clear Clear  
Wind Chill: 23°   Ceiling: Unl
Heat Index: 23°   Visibility: 9mi
Dew Point: 19°   Wind: 3mph
Humidity: 86%   Direction: 170°S
Pressure: 30.3"   Gusts: NA
Location:  52.9°N, 66.87°W
Report Text: CYWK 230700Z AUTO 17003KT 9SM CLR M05/M07 A3030 RMK ICG SLP291
Loading
Personal Weather Stations






























Interactive Weather Map New forecast layout! Learn more

10-Day Weather Forecast

Advertisements
Track Severe Weather on mobile